createdAt,value
2018-01-26T00:02:06.889Z,71.33
2018-01-26T00:04:36.079Z,71.46
2018-01-26T00:07:04.925Z,71.32
2018-01-26T00:09:33.799Z,71.64
2018-01-26T00:12:02.764Z,71.68
2018-01-26T00:14:31.900Z,71.47
2018-01-26T00:17:01.103Z,71.58
2018-01-26T00:19:29.960Z,71.79
2018-01-26T00:21:58.837Z,71.55
2018-01-26T00:24:27.680Z,71.86
2018-01-26T00:26:57.780Z,71.87
2018-01-26T00:29:27.253Z,71.89
2018-01-26T00:31:56.082Z,71.72
2018-01-26T00:34:25.393Z,71.77
2018-01-26T00:36:54.273Z,71.73
2018-01-26T00:39:23.343Z,71.75
2018-01-26T00:41:53.432Z,71.59
2018-01-26T00:44:22.533Z,71.58
2018-01-26T00:47:00.114Z,71.57
2018-01-26T00:49:28.983Z,71.68
2018-01-26T00:51:57.781Z,71.73
2018-01-26T00:54:30.716Z,72.26
2018-01-26T00:56:59.924Z,72.86
2018-01-26T00:59:29.218Z,72.70
2018-01-26T01:01:58.965Z,72.55
2018-01-26T01:04:27.952Z,72.23
2018-01-26T01:06:57.270Z,72.50
2018-01-26T01:09:28.250Z,72.07
2018-01-26T01:11:57.491Z,71.88
2018-01-26T01:14:26.368Z,71.84
2018-01-26T01:16:57.578Z,71.95
2018-01-26T01:19:26.716Z,72.10
2018-01-26T01:21:55.900Z,71.99
2018-01-26T01:24:27.000Z,71.77
2018-01-26T01:26:55.956Z,71.52
2018-01-26T01:29:24.935Z,72.04
2018-01-26T01:31:56.454Z,72.01
2018-01-26T01:34:25.641Z,72.30
2018-01-26T01:36:54.912Z,72.33
2018-01-26T01:39:25.829Z,72.21
2018-01-26T01:41:54.645Z,72.15
2018-01-26T01:44:23.865Z,72.19
2018-01-26T01:46:54.734Z,72.40
2018-01-26T01:49:23.979Z,72.51
2018-01-26T01:51:53.264Z,72.65
2018-01-26T01:54:22.614Z,72.70
2018-01-26T01:56:51.779Z,72.79
2018-01-26T01:59:21.013Z,72.99
2018-01-26T02:01:50.124Z,72.91
2018-01-26T02:04:19.486Z,72.95
2018-01-26T02:06:48.589Z,72.87
2018-01-26T02:09:17.819Z,73.11
2018-01-26T02:11:46.991Z,73.12
2018-01-26T02:14:16.349Z,73.19
2018-01-26T02:16:47.024Z,73.67
2018-01-26T02:19:16.248Z,73.43
2018-01-26T02:21:45.537Z,73.56
2018-01-26T02:24:15.721Z,73.67
2018-01-26T02:26:44.818Z,73.82
2018-01-26T02:29:13.721Z,73.83
2018-01-26T02:31:43.039Z,73.76
2018-01-26T02:34:11.914Z,73.58
2018-01-26T02:36:40.733Z,74.35
2018-01-26T02:39:11.394Z,73.91
2018-01-26T02:41:40.219Z,73.89
2018-01-26T02:44:09.052Z,73.81
2018-01-26T02:46:37.993Z,73.75
2018-01-26T02:49:06.828Z,73.91
2018-01-26T02:51:35.974Z,74.18
2018-01-26T02:54:05.715Z,74.49
2018-01-26T02:56:34.512Z,74.42
2018-01-26T02:59:03.341Z,74.53
2018-01-26T03:01:33.036Z,74.46
2018-01-26T03:04:01.852Z,74.00
2018-01-26T03:06:30.705Z,73.30
2018-01-26T03:08:59.596Z,73.21
2018-01-26T03:11:28.429Z,74.69
2018-01-26T03:13:57.720Z,73.79
2018-01-26T03:16:26.671Z,74.63
2018-01-26T03:18:55.971Z,74.97
2018-01-26T03:21:24.765Z,75.19
2018-01-26T03:23:53.736Z,74.83
2018-01-26T03:26:22.970Z,75.93
2018-01-26T03:28:51.755Z,77.04
2018-01-26T03:31:25.321Z,75.74
2018-01-26T03:33:54.480Z,75.16
2018-01-26T03:36:23.582Z,75.60
2018-01-26T03:38:53.339Z,75.76
2018-01-26T03:41:22.429Z,75.23
2018-01-26T03:43:51.283Z,75.18
2018-01-26T03:46:20.376Z,74.48
2018-01-26T03:48:49.508Z,75.51
2018-01-26T03:51:18.384Z,75.13
2018-01-26T03:53:47.682Z,74.97
2018-01-26T03:56:16.843Z,75.11
2018-01-26T03:58:46.079Z,74.17
2018-01-26T04:01:17.205Z,74.02
2018-01-26T04:03:46.344Z,74.45
2018-01-26T04:06:15.482Z,75.77
2018-01-26T04:08:44.319Z,75.77
2018-01-26T04:11:13.521Z,76.26
2018-01-26T04:13:42.561Z,76.44
2018-01-26T04:16:11.417Z,75.75
2018-01-26T04:18:40.228Z,75.74
2018-01-26T04:21:09.126Z,75.71
2018-01-26T04:23:41.197Z,75.33
2018-01-26T04:26:11.211Z,75.01
2018-01-26T04:28:40.252Z,74.68
2018-01-26T04:31:12.193Z,74.44
2018-01-26T04:33:42.501Z,74.49
2018-01-26T04:36:11.590Z,74.19
2018-01-26T04:38:40.652Z,73.88
2018-01-26T04:41:15.621Z,74.16
2018-01-26T04:43:46.356Z,74.02
2018-01-26T04:46:16.659Z,73.85
2018-01-26T04:48:46.726Z,73.73
2018-01-26T04:51:20.720Z,73.68
2018-01-26T04:53:50.290Z,73.74
2018-01-26T04:56:24.025Z,73.34
2018-01-26T04:58:55.782Z,73.03
2018-01-26T05:01:25.321Z,72.95
2018-01-26T05:03:54.585Z,72.98
2018-01-26T05:06:24.714Z,72.90
2018-01-26T05:08:54.139Z,73.05
2018-01-26T05:11:24.372Z,72.89
2018-01-26T05:13:53.733Z,72.88
2018-01-26T05:16:23.185Z,73.07
2018-01-26T05:18:52.164Z,72.76
2018-01-26T05:21:22.484Z,72.66
2018-01-26T05:23:51.697Z,72.83
2018-01-26T05:26:21.105Z,72.81
2018-01-26T05:28:50.406Z,72.86
2018-01-26T05:31:24.544Z,72.96
2018-01-26T05:33:54.617Z,73.05
2018-01-26T05:36:27.074Z,72.92
2018-01-26T05:38:57.248Z,73.03
2018-01-26T05:41:26.545Z,72.86
2018-01-26T05:43:57.077Z,72.65
2018-01-26T05:46:25.868Z,72.74
2018-01-26T05:48:55.515Z,72.96
2018-01-26T05:51:26.764Z,72.71
2018-01-26T05:53:56.428Z,72.39
2018-01-26T05:56:26.472Z,71.38
2018-01-26T05:58:56.824Z,70.93
2018-01-26T06:01:26.327Z,70.82
2018-01-26T06:03:55.577Z,70.52
2018-01-26T06:06:24.963Z,70.40
2018-01-26T06:08:55.192Z,70.10
2018-01-26T06:11:29.056Z,70.02
2018-01-26T06:13:58.847Z,70.07
2018-01-26T06:16:28.021Z,69.96
2018-01-26T06:18:57.211Z,70.02
2018-01-26T06:21:26.361Z,69.72
2018-01-26T06:23:55.506Z,69.83
2018-01-26T06:26:24.357Z,69.57
2018-01-26T06:28:53.544Z,69.44
2018-01-26T06:31:22.691Z,69.39
2018-01-26T06:33:58.812Z,69.28
2018-01-26T06:36:28.087Z,69.37
2018-01-26T06:38:57.030Z,69.06
2018-01-26T06:41:26.849Z,68.63
2018-01-26T06:43:57.275Z,68.55
2018-01-26T06:46:26.571Z,68.37
2018-01-26T06:48:56.790Z,67.95
2018-01-26T06:51:25.983Z,67.15
2018-01-26T06:53:54.955Z,66.48
2018-01-26T06:56:24.878Z,66.16
2018-01-26T06:58:55.423Z,66.72
2018-01-26T07:01:24.603Z,65.56
2018-01-26T07:03:58.003Z,65.25
2018-01-26T07:06:27.884Z,65.01
2018-01-26T07:08:57.523Z,65.44
2018-01-26T07:11:26.788Z,66.06
2018-01-26T07:13:59.424Z,65.87
2018-01-26T07:16:28.779Z,65.65
2018-01-26T07:18:58.097Z,65.70
2018-01-26T07:21:27.277Z,65.11
2018-01-26T07:23:57.472Z,65.30
2018-01-26T07:26:28.637Z,64.58
2018-01-26T07:29:00.218Z,64.61
2018-01-26T07:31:29.691Z,64.56
2018-01-26T07:34:00.976Z,63.99
2018-01-26T07:36:30.692Z,64.02
2018-01-26T07:39:00.133Z,63.60
2018-01-26T07:41:33.028Z,65.04
2018-01-26T07:44:02.194Z,64.25
2018-01-26T07:46:33.417Z,62.89
2018-01-26T07:49:07.330Z,61.94
2018-01-26T07:51:36.424Z,61.65
2018-01-26T07:54:05.330Z,60.85
2018-01-26T07:56:34.490Z,60.93
2018-01-26T07:59:03.677Z,61.70
2018-01-26T08:01:32.766Z,61.19
2018-01-26T08:04:03.225Z,62.00
2018-01-26T08:06:32.049Z,62.42
2018-01-26T08:09:00.935Z,61.76
2018-01-26T08:11:31.639Z,60.97
2018-01-26T08:14:01.799Z,60.48
2018-01-26T08:16:31.635Z,61.35
2018-01-26T08:19:00.839Z,60.14
2018-01-26T08:21:33.575Z,59.89
2018-01-26T08:24:02.508Z,60.31
2018-01-26T08:26:31.617Z,60.00
2018-01-26T08:29:01.670Z,59.52
2018-01-26T08:31:30.786Z,59.31
2018-01-26T08:33:59.627Z,58.80
2018-01-26T08:36:31.003Z,58.99
2018-01-26T08:39:01.009Z,60.29
2018-01-26T08:41:30.149Z,60.45
2018-01-26T08:43:59.169Z,59.79
2018-01-26T08:46:30.633Z,58.61
2018-01-26T08:48:59.492Z,57.63
2018-01-26T08:51:28.410Z,57.47
2018-01-26T08:53:59.073Z,57.97
2018-01-26T08:56:27.982Z,59.33
2018-01-26T08:58:56.863Z,58.49
2018-01-26T09:01:29.168Z,57.98
2018-01-26T09:03:58.008Z,58.18
2018-01-26T09:06:26.813Z,57.89
2018-01-26T09:08:55.837Z,58.38
2018-01-26T09:11:24.688Z,58.34
2018-01-26T09:13:53.528Z,59.01
2018-01-26T09:16:22.468Z,57.44
2018-01-26T09:18:51.287Z,57.23
2018-01-26T09:21:20.147Z,57.37
2018-01-26T09:23:49.146Z,56.93
2018-01-26T09:26:18.058Z,57.54
2018-01-26T09:28:46.875Z,57.96
2018-01-26T09:31:15.736Z,57.94
2018-01-26T09:33:44.556Z,58.15
2018-01-26T09:36:13.381Z,56.60
2018-01-26T09:38:42.487Z,56.42
2018-01-26T09:41:11.322Z,57.41
2018-01-26T09:43:40.157Z,59.30
2018-01-26T09:46:10.232Z,59.96
2018-01-26T09:48:39.233Z,59.86
2018-01-26T09:51:08.107Z,58.27
2018-01-26T09:53:38.629Z,58.32
2018-01-26T09:56:07.688Z,58.36
2018-01-26T09:58:36.594Z,57.43
2018-01-26T10:01:06.265Z,58.34
2018-01-26T10:03:35.103Z,58.79
2018-01-26T10:06:03.917Z,59.08
2018-01-26T10:08:34.504Z,58.80
2018-01-26T10:11:03.479Z,57.27
2018-01-26T10:13:32.283Z,55.99
2018-01-26T10:16:01.108Z,56.11
2018-01-26T10:18:30.022Z,56.10
2018-01-26T10:20:58.849Z,55.30
2018-01-26T10:23:27.693Z,55.45
2018-01-26T10:25:56.473Z,55.93
2018-01-26T10:28:26.153Z,56.90
2018-01-26T10:30:55.277Z,56.32
2018-01-26T10:33:24.173Z,55.30
2018-01-26T10:35:52.943Z,56.15
2018-01-26T10:38:22.717Z,55.36
2018-01-26T10:40:51.488Z,56.03
2018-01-26T10:43:20.303Z,57.29
2018-01-26T10:45:49.221Z,58.42
2018-01-26T10:48:18.021Z,58.61
2018-01-26T10:50:46.968Z,56.82
2018-01-26T10:53:15.874Z,56.38
2018-01-26T10:55:44.673Z,55.79
2018-01-26T10:58:13.570Z,55.85
2018-01-26T11:00:46.800Z,57.41
2018-01-26T11:03:15.722Z,57.03
2018-01-26T11:05:44.521Z,57.45
2018-01-26T11:08:13.337Z,57.27
2018-01-26T11:10:42.155Z,56.69
2018-01-26T11:13:10.946Z,56.36
2018-01-26T11:15:40.624Z,56.95
2018-01-26T11:18:09.528Z,56.78
2018-01-26T11:20:38.348Z,56.07
2018-01-26T11:23:07.270Z,56.23
2018-01-26T11:25:36.072Z,56.77
2018-01-26T11:28:04.904Z,56.95
2018-01-26T11:30:33.885Z,57.14
2018-01-26T11:33:02.699Z,58.28
2018-01-26T11:35:31.601Z,58.92
2018-01-26T11:38:00.671Z,58.77
2018-01-26T11:40:29.534Z,58.56
2018-01-26T11:42:58.323Z,58.05
2018-01-26T11:45:27.224Z,58.25
2018-01-26T11:47:56.063Z,56.92
2018-01-26T11:50:24.863Z,57.60
2018-01-26T11:52:54.603Z,58.02
2018-01-26T11:55:23.489Z,57.11
2018-01-26T11:57:52.362Z,57.89
2018-01-26T12:00:27.095Z,58.04
2018-01-26T12:02:55.912Z,58.37
2018-01-26T12:05:24.695Z,58.62
2018-01-26T12:07:54.348Z,59.01
2018-01-26T12:10:23.197Z,59.00
2018-01-26T12:12:52.011Z,59.28
2018-01-26T12:15:20.877Z,59.56
2018-01-26T12:17:49.799Z,59.38
2018-01-26T12:20:18.643Z,59.16
2018-01-26T12:22:50.211Z,59.45
2018-01-26T12:25:22.159Z,59.57
2018-01-26T12:27:54.208Z,59.28
2018-01-26T12:30:23.321Z,59.40
2018-01-26T12:32:52.367Z,59.55
2018-01-26T12:35:22.003Z,59.07
2018-01-26T12:37:50.852Z,59.09
2018-01-26T12:40:19.693Z,58.96
2018-01-26T12:42:48.552Z,59.54
2018-01-26T12:45:17.341Z,59.29
2018-01-26T12:47:46.112Z,59.46
2018-01-26T12:50:14.914Z,58.92
2018-01-26T12:52:43.686Z,59.48
2018-01-26T12:55:12.595Z,59.31
2018-01-26T12:57:41.422Z,59.16
2018-01-26T13:00:10.267Z,59.46
2018-01-26T13:02:39.136Z,59.78
2018-01-26T13:05:08.855Z,60.40
2018-01-26T13:07:37.630Z,60.42
2018-01-26T13:10:06.450Z,60.31
2018-01-26T13:12:35.284Z,59.18
2018-01-26T13:15:04.267Z,59.60
2018-01-26T13:17:33.044Z,59.73
2018-01-26T13:20:02.892Z,59.96
2018-01-26T13:22:31.938Z,60.20
2018-01-26T13:25:00.748Z,60.19
2018-01-26T13:27:30.642Z,59.94
2018-01-26T13:29:59.435Z,60.19
2018-01-26T13:32:28.222Z,60.29
2018-01-26T13:34:57.063Z,60.07
2018-01-26T13:37:25.871Z,60.60
2018-01-26T13:39:54.698Z,60.30
2018-01-26T13:42:23.588Z,60.91
2018-01-26T13:44:52.383Z,61.54
2018-01-26T13:47:21.185Z,61.52
2018-01-26T13:49:54.856Z,61.50
2018-01-26T13:52:23.668Z,61.76
2018-01-26T13:54:52.566Z,61.37
2018-01-26T13:57:21.558Z,61.79
2018-01-26T13:59:50.409Z,61.81
2018-01-26T14:02:19.235Z,61.55
2018-01-26T14:04:48.104Z,61.46
2018-01-26T14:07:16.926Z,61.27
2018-01-26T14:09:45.817Z,61.44
2018-01-26T14:12:14.645Z,61.12
2018-01-26T14:14:43.391Z,60.67
2018-01-26T14:17:12.202Z,60.75
2018-01-26T14:19:41.025Z,60.56
2018-01-26T14:22:09.839Z,60.57
2018-01-26T14:24:38.877Z,60.53
2018-01-26T14:27:08.096Z,60.91
2018-01-26T14:29:37.076Z,60.98
2018-01-26T14:32:06.116Z,61.06
2018-01-26T14:34:36.704Z,61.50
2018-01-26T14:37:05.519Z,60.75
2018-01-26T14:39:34.485Z,60.67
2018-01-26T14:42:03.375Z,60.95
2018-01-26T14:44:32.176Z,61.21
2018-01-26T14:47:01.155Z,61.05
2018-01-26T14:49:31.240Z,61.29
2018-01-26T14:52:00.030Z,61.61
2018-01-26T14:54:28.864Z,62.35
2018-01-26T14:56:58.615Z,63.21
2018-01-26T14:59:28.030Z,63.78
2018-01-26T15:01:56.876Z,63.91
2018-01-26T15:04:26.615Z,63.62
2018-01-26T15:06:55.423Z,64.18
2018-01-26T15:09:24.241Z,63.59
2018-01-26T15:11:55.533Z,64.00
2018-01-26T15:14:24.883Z,63.73
2018-01-26T15:16:54.988Z,63.86
2018-01-26T15:19:26.572Z,63.41
2018-01-26T15:21:56.442Z,63.41
2018-01-26T15:24:25.454Z,63.68
2018-01-26T15:26:55.468Z,64.27
2018-01-26T15:29:24.373Z,64.45
2018-01-26T15:31:53.144Z,65.00
2018-01-26T15:34:22.917Z,65.47
2018-01-26T15:36:52.816Z,65.75
2018-01-26T15:39:21.729Z,66.24
2018-01-26T15:41:54.197Z,66.30
2018-01-26T15:44:23.111Z,66.21
2018-01-26T15:46:52.011Z,66.16
2018-01-26T15:49:20.822Z,66.52
2018-01-26T15:51:49.615Z,66.82
2018-01-26T15:54:18.417Z,66.78
2018-01-26T15:56:48.167Z,66.83
2018-01-26T15:59:17.080Z,67.08
2018-01-26T16:01:45.999Z,67.75
2018-01-26T16:04:17.569Z,68.11
2018-01-26T16:06:46.345Z,68.27
2018-01-26T16:09:15.234Z,68.35
2018-01-26T16:11:44.301Z,68.37
2018-01-26T16:14:13.123Z,68.46
2018-01-26T16:16:41.995Z,68.60
2018-01-26T16:19:11.760Z,69.21
2018-01-26T16:21:40.639Z,70.10
2018-01-26T16:24:09.530Z,70.26
2018-01-26T16:26:43.611Z,70.94
2018-01-26T16:29:13.553Z,70.89
2018-01-26T16:31:42.480Z,71.17
2018-01-26T16:34:14.969Z,71.40
2018-01-26T16:36:43.993Z,71.86
2018-01-26T16:39:12.974Z,72.35
2018-01-26T16:41:42.055Z,72.36
2018-01-26T16:44:11.009Z,72.71
2018-01-26T16:46:39.960Z,72.50
2018-01-26T16:49:09.222Z,72.63
2018-01-26T16:51:38.128Z,73.01
2018-01-26T16:54:06.985Z,73.57
2018-01-26T16:56:38.443Z,73.19
2018-01-26T16:59:07.244Z,73.80
2018-01-26T17:01:36.212Z,73.78
2018-01-26T17:04:08.481Z,73.89
2018-01-26T17:06:37.327Z,73.94
2018-01-26T17:09:06.157Z,74.51
2018-01-26T17:11:34.946Z,74.50
2018-01-26T17:14:03.887Z,74.80
2018-01-26T17:16:32.697Z,74.88
2018-01-26T17:19:03.228Z,74.85
2018-01-26T17:21:32.111Z,74.78
2018-01-26T17:24:00.929Z,74.43
2018-01-26T17:26:31.591Z,75.18
2018-01-26T17:29:00.391Z,74.71
2018-01-26T17:31:29.251Z,74.97
2018-01-26T17:33:58.557Z,74.88
2018-01-26T17:36:27.395Z,74.85
2018-01-26T17:38:56.228Z,75.39
2018-01-26T17:41:25.978Z,75.97
2018-01-26T17:43:54.805Z,76.22
2018-01-26T17:46:23.635Z,76.22
2018-01-26T17:48:52.614Z,76.48
2018-01-26T17:51:21.474Z,76.55
2018-01-26T17:53:50.505Z,76.63
2018-01-26T17:56:19.483Z,76.51
2018-01-26T17:58:48.316Z,76.71
2018-01-26T18:01:17.120Z,76.36
2018-01-26T18:03:46.270Z,76.42
2018-01-26T18:06:15.123Z,76.24
2018-01-26T18:08:43.995Z,76.27
2018-01-26T18:11:13.699Z,76.16
2018-01-26T18:13:42.560Z,75.79
2018-01-26T18:16:11.504Z,75.53
2018-01-26T18:18:40.367Z,75.85
2018-01-26T18:21:09.233Z,75.93
2018-01-26T18:23:38.225Z,75.61
2018-01-26T18:26:07.964Z,75.17
2018-01-26T18:28:36.823Z,75.56
2018-01-26T18:31:05.634Z,75.30
2018-01-26T18:33:35.369Z,75.17
2018-01-26T18:36:04.202Z,75.19
2018-01-26T18:38:34.216Z,75.29
2018-01-26T18:41:03.194Z,75.28
2018-01-26T18:43:32.065Z,75.24
2018-01-26T18:46:00.941Z,75.13
2018-01-26T18:48:29.792Z,75.21
2018-01-26T18:50:58.616Z,75.20
2018-01-26T18:53:27.444Z,75.19
2018-01-26T18:55:58.002Z,75.32
2018-01-26T18:58:26.857Z,75.30
2018-01-26T19:00:55.722Z,75.34
2018-01-26T19:03:25.510Z,75.48
2018-01-26T19:05:54.415Z,75.52
2018-01-26T19:08:23.288Z,75.43
2018-01-26T19:10:52.568Z,75.28
2018-01-26T19:13:21.421Z,75.51
2018-01-26T19:15:50.221Z,75.69
2018-01-26T19:18:19.106Z,75.69
2018-01-26T19:20:47.957Z,75.51
2018-01-26T19:23:17.056Z,75.46
2018-01-26T19:25:45.940Z,75.59
2018-01-26T19:28:14.776Z,75.68
2018-01-26T19:30:43.722Z,75.78
2018-01-26T19:33:15.332Z,76.05
2018-01-26T19:35:44.224Z,76.10
2018-01-26T19:38:13.060Z,75.80
2018-01-26T19:40:41.961Z,75.61
2018-01-26T19:43:10.758Z,75.80
2018-01-26T19:45:39.701Z,75.61
2018-01-26T19:48:08.841Z,75.82
2018-01-26T19:50:37.741Z,75.58
2018-01-26T19:53:06.622Z,75.44
2018-01-26T19:55:35.729Z,75.32
2018-01-26T19:58:04.634Z,75.10
2018-01-26T20:00:33.570Z,75.13
2018-01-26T20:03:14.455Z,75.32
2018-01-26T20:05:58.908Z,75.47
2018-01-26T20:08:34.091Z,75.37
2018-01-26T20:11:02.892Z,74.91
2018-01-26T20:13:31.807Z,74.68
2018-01-26T20:16:02.452Z,73.72
2018-01-26T20:18:31.283Z,73.85
2018-01-26T20:21:00.109Z,74.07
2018-01-26T20:23:29.058Z,73.38
2018-01-26T20:25:57.906Z,73.89
2018-01-26T20:28:26.739Z,73.71
2018-01-26T20:30:55.584Z,72.84
2018-01-26T20:33:24.462Z,72.85
2018-01-26T20:35:53.443Z,72.65
2018-01-26T20:38:22.347Z,72.72
2018-01-26T20:40:53.111Z,73.66
2018-01-26T20:43:21.916Z,73.80
2018-01-26T20:45:51.755Z,74.06
2018-01-26T20:48:20.917Z,74.02
2018-01-26T20:50:49.782Z,73.94
2018-01-26T20:53:18.630Z,73.79
2018-01-26T20:55:47.510Z,73.99
2018-01-26T20:58:16.356Z,73.58
2018-01-26T21:00:45.491Z,73.73
2018-01-26T21:03:14.302Z,73.88
2018-01-26T21:05:43.277Z,73.60
2018-01-26T21:08:12.367Z,73.48
2018-01-26T21:10:41.226Z,73.65
2018-01-26T21:13:11.006Z,74.07
2018-01-26T21:15:42.345Z,73.73
2018-01-26T21:18:11.249Z,73.91
2018-01-26T21:20:40.069Z,73.79
2018-01-26T21:23:09.423Z,73.83
2018-01-26T21:25:38.220Z,73.35
2018-01-26T21:28:07.110Z,73.58
2018-01-26T21:30:36.923Z,72.88
2018-01-26T21:33:05.793Z,73.23
2018-01-26T21:35:34.681Z,73.00
2018-01-26T21:38:03.755Z,73.13
2018-01-26T21:40:32.570Z,72.89
2018-01-26T21:43:01.428Z,72.75
2018-01-26T21:45:32.028Z,72.65
2018-01-26T21:48:00.825Z,72.57
2018-01-26T21:50:29.755Z,72.75
2018-01-26T21:55:32.678Z,73.64
2018-01-26T21:58:01.457Z,73.30
2018-01-26T22:00:30.437Z,73.42
2018-01-26T22:02:59.257Z,73.26
2018-01-26T22:05:28.087Z,73.15
2018-01-26T22:07:58.747Z,73.17
2018-01-26T22:10:27.569Z,73.69
2018-01-26T22:12:56.411Z,73.15
2018-01-26T22:15:27.058Z,73.47
2018-01-26T22:23:55.616Z,74.25
2018-01-26T22:26:24.513Z,73.97
2018-01-26T22:28:53.417Z,73.60
2018-01-26T22:31:22.254Z,73.73
2018-01-26T22:33:51.995Z,73.59
2018-01-26T22:36:20.823Z,73.07
2018-01-26T22:38:49.666Z,73.07
2018-01-26T22:41:21.184Z,73.02
2018-01-26T22:43:49.954Z,72.64
2018-01-26T22:46:18.761Z,72.82
2018-01-26T22:48:47.599Z,73.05
2018-01-26T22:51:16.556Z,73.62
2018-01-26T22:53:45.379Z,73.61
2018-01-26T22:56:15.249Z,73.44
2018-01-26T22:58:44.116Z,73.32
2018-01-26T23:01:12.941Z,73.11
2018-01-26T23:03:42.684Z,73.33
2018-01-26T23:06:11.454Z,73.81
2018-01-26T23:08:40.377Z,74.09
2018-01-26T23:11:10.063Z,73.53
2018-01-26T23:13:38.923Z,73.36
2018-01-26T23:16:07.784Z,73.21
2018-01-26T23:18:38.525Z,73.36
2018-01-26T23:21:07.374Z,73.34
2018-01-26T23:23:36.358Z,73.31
2018-01-26T23:26:06.383Z,73.78
2018-01-26T23:28:35.225Z,72.95
2018-01-26T23:31:04.142Z,72.65
2018-01-26T23:33:32.984Z,72.46
2018-01-26T23:36:01.824Z,72.73
2018-01-26T23:38:30.688Z,72.98
2018-01-26T23:40:59.554Z,72.84
2018-01-26T23:43:28.435Z,72.70
2018-01-26T23:45:57.273Z,72.33
2018-01-26T23:48:26.519Z,72.85
2018-01-26T23:50:55.477Z,73.42
2018-01-26T23:53:24.394Z,72.66
2018-01-26T23:55:54.136Z,72.70
2018-01-26T23:58:23.011Z,72.72
